createdAt,value
2018-08-13T00:08:47.367Z,99814.05
2018-08-13T00:18:51.505Z,99813.66
2018-08-13T00:28:54.989Z,99801.98
2018-08-13T00:38:58.048Z,99796.30
2018-08-13T00:49:01.458Z,99784.28
2018-08-13T00:59:05.235Z,99785.50
2018-08-13T01:09:10.342Z,99779.83
2018-08-13T01:19:13.535Z,99759.87
2018-08-13T01:29:16.703Z,99755.16
2018-08-13T01:39:19.962Z,99743.47
2018-08-13T01:49:23.854Z,99734.75
2018-08-13T01:59:26.929Z,99728.18
2018-08-13T02:09:37.416Z,99739.86
2018-08-13T02:19:40.784Z,99737.57
2018-08-13T02:29:43.884Z,99725.70
2018-08-13T02:39:47.646Z,99715.23
2018-08-13T02:49:51.063Z,99716.02
2018-08-13T02:59:54.739Z,99712.71
2018-08-13T03:09:57.839Z,99709.34
2018-08-13T03:20:01.902Z,99703.63
2018-08-13T03:30:08.321Z,99690.30
2018-08-13T03:40:13.577Z,99687.48
2018-08-13T03:50:16.764Z,99684.26
2018-08-13T04:00:20.238Z,99665.52
2018-08-13T04:10:23.347Z,99672.53
2018-08-13T04:20:27.303Z,99667.56
2018-08-13T04:30:30.607Z,99666.52
2018-08-13T04:40:33.704Z,99659.55
2018-08-13T04:50:36.796Z,99658.22
2018-08-13T05:00:40.006Z,99658.18
2018-08-13T05:10:43.204Z,99656.98
2018-08-13T05:20:46.311Z,99659.52
2018-08-13T05:30:50.330Z,99664.48
2018-08-13T05:40:53.410Z,99675.83
2018-08-13T05:50:56.517Z,99670.49
2018-08-13T06:00:59.738Z,99661.92
2018-08-13T06:11:03.060Z,99657.55
2018-08-13T06:21:06.396Z,99642.48
2018-08-13T06:31:10.080Z,99619.45
2018-08-13T06:41:13.325Z,99600.07
2018-08-13T06:51:17.091Z,99599.20
2018-08-13T07:01:20.445Z,99600.04
2018-08-13T07:11:23.531Z,99599.09
2018-08-13T07:21:26.614Z,99587.31
2018-08-13T07:31:30.466Z,99585.39
2018-08-13T07:41:33.484Z,99586.38
2018-08-13T07:51:36.789Z,99578.73
2018-08-13T08:01:39.902Z,99571.30
2018-08-13T08:11:42.990Z,99561.18
2018-08-13T08:21:46.069Z,99561.33
2018-08-13T08:31:49.248Z,99553.91
2018-08-13T08:41:52.358Z,99545.91
2018-08-13T08:51:55.485Z,99543.30
2018-08-13T09:01:58.640Z,99525.59
2018-08-13T09:12:01.761Z,99515.63
2018-08-13T09:22:16.404Z,99506.98
2018-08-13T09:32:31.733Z,99500.98
2018-08-13T09:42:34.741Z,99498.39
2018-08-13T09:52:37.896Z,99486.40
2018-08-13T10:02:40.986Z,99480.40
2018-08-13T10:12:44.763Z,99471.35
2018-08-13T10:22:48.011Z,99452.97
2018-08-13T10:32:51.187Z,99443.93
2018-08-13T10:42:54.561Z,99435.70
2018-08-13T10:52:57.752Z,99424.77
2018-08-13T11:03:01.132Z,99415.40
2018-08-13T11:13:04.239Z,99401.00
2018-08-13T11:23:07.337Z,99390.72
2018-08-13T11:33:10.506Z,99379.28
2018-08-13T11:43:13.846Z,99368.91
2018-08-13T11:53:17.045Z,99367.30
2018-08-13T12:03:20.108Z,99350.45
2018-08-13T12:13:23.732Z,99353.98
2018-08-13T12:23:26.993Z,99354.09
2018-08-13T12:33:30.198Z,99350.02
2018-08-13T12:43:33.354Z,99343.84
2018-08-13T12:53:36.577Z,99338.17
2018-08-13T13:03:40.202Z,99335.66
2018-08-13T13:13:43.377Z,99321.64
2018-08-13T13:23:46.461Z,99320.45
2018-08-13T13:33:49.694Z,99311.39
2018-08-13T13:43:52.897Z,99315.60
2018-08-13T13:53:55.964Z,99299.02
2018-08-13T14:03:59.149Z,99294.51
2018-08-13T14:14:02.975Z,99297.00
2018-08-13T14:24:06.361Z,99292.99
2018-08-13T14:34:09.498Z,99332.11
2018-08-13T14:44:12.799Z,99383.68
2018-08-13T14:54:16.091Z,99426.03
2018-08-13T15:04:19.176Z,99425.84
2018-08-13T15:14:22.750Z,99434.56
2018-08-13T15:24:25.828Z,99453.32
2018-08-13T15:34:29.104Z,99474.03
2018-08-13T15:44:32.215Z,99497.59
2018-08-13T15:54:35.535Z,99526.64
2018-08-13T16:04:38.713Z,99537.53
2018-08-13T16:14:41.957Z,99515.72
2018-08-13T16:24:45.061Z,99479.45
2018-08-13T16:34:48.305Z,99487.62
2018-08-13T16:44:51.457Z,99478.34
2018-08-13T16:54:54.842Z,99462.61
2018-08-13T17:04:58.063Z,99467.81
2018-08-13T17:15:01.247Z,99468.44
2018-08-13T17:25:05.274Z,99471.81
2018-08-13T17:35:08.659Z,99484.73
2018-08-13T17:45:11.899Z,99479.06
2018-08-13T17:55:15.375Z,99457.22
2018-08-13T18:05:20.822Z,99461.53
2018-08-13T18:15:24.329Z,99488.31
2018-08-13T18:25:27.929Z,99513.10
2018-08-13T18:35:31.118Z,99528.16
2018-08-13T18:45:34.294Z,99557.45
2018-08-13T18:55:37.414Z,99577.78
2018-08-13T19:05:40.553Z,99599.27
2018-08-13T19:15:43.707Z,99586.35
2018-08-13T19:25:47.523Z,99568.63
2018-08-13T19:35:53.662Z,99591.59
2018-08-13T19:45:59.573Z,99589.75
2018-08-13T19:56:05.448Z,99565.25
2018-08-13T20:06:08.482Z,99582.69
2018-08-13T20:16:11.626Z,99590.70
2018-08-13T20:26:15.358Z,99597.08
2018-08-13T20:36:19.494Z,99602.50
2018-08-13T20:46:22.768Z,99598.88
2018-08-13T20:56:25.822Z,99609.02
2018-08-13T21:06:29.335Z,99614.02
2018-08-13T21:16:33.146Z,99608.67
2018-08-13T21:26:37.054Z,99603.81
2018-08-13T21:36:40.205Z,99612.32
2018-08-13T21:46:43.906Z,99604.69
2018-08-13T21:56:46.941Z,99599.61
2018-08-13T22:06:50.053Z,99608.98
2018-08-13T22:16:53.285Z,99612.70
2018-08-13T22:26:56.392Z,99622.81
2018-08-13T22:37:00.358Z,99614.30
2018-08-13T22:47:03.537Z,99614.64
2018-08-13T22:57:06.564Z,99626.36
2018-08-13T23:07:10.209Z,99631.03
2018-08-13T23:17:13.446Z,99646.41
2018-08-13T23:27:16.978Z,99645.38
2018-08-13T23:37:20.138Z,99632.04
2018-08-13T23:47:23.695Z,99631.03
2018-08-13T23:57:26.835Z,99625.17
